KFWA/FWA METAR and TAF weather

Enter ICAO airport designator
Station Type Date Time Source
KFWA METAR 2020/09/18 19:54 UTC NOAA

KFWA 181954Z 07009G17KT 10SM CLR 17/01 A3029 RMK AO2 SLP256 T01670011


Station Type Date Time Source
KFWA Decoded METAR 2020/09/18 19:54 UTC NOAA

FORT WAYNE INTERNATIONAL, IN, United States (KFWA) 41-00N 85-12W 248M
Sep 18, 2020 - 03:54 PM EDT / 2020.09.18 1954 UTC
Wind: from the ENE (070 degrees) at 10 MPH (9 KT) gusting to 20 MPH (17 KT):0
Visibility: 10 mile(s):0
Sky conditions: clear
Temperature: 62.1 F (16.7 C)
Dew Point: 34.0 F (1.1 C)
Relative Humidity: 34%
Pressure (altimeter): 30.29 in. Hg (1025 hPa)
ob: KFWA 181954Z 07009G17KT 10SM CLR 17/01 A3029 RMK AO2 SLP256 T01670011
cycle: 20

Station Type Date Time Source
KFWA TAF 2020/09/18 18:22 UTC NOAA

TAF KFWA 181720Z 1818/1918 03010G17KT P6SM FEW050
FM190100 05004KT P6SM SKC

Example: see airport list